sensor_id;sensor_type;location;lat;lon;timestamp;P1;durP1;ratioP1;P2;durP2;ratioP2
8556;SDS011;4316;53.840;10.762;2023-12-20T00:01:49;23.07;;;3.43;;
8556;SDS011;4316;53.840;10.762;2023-12-20T00:04:14;18.13;;;3.30;;
8556;SDS011;4316;53.840;10.762;2023-12-20T00:06:40;10.53;;;2.70;;
8556;SDS011;4316;53.840;10.762;2023-12-20T00:09:06;16.93;;;3.27;;
8556;SDS011;4316;53.840;10.762;2023-12-20T00:11:32;14.73;;;3.53;;
8556;SDS011;4316;53.840;10.762;2023-12-20T00:13:58;16.67;;;3.13;;
8556;SDS011;4316;53.840;10.762;2023-12-20T00:16:23;19.40;;;3.97;;
8556;SDS011;4316;53.840;10.762;2023-12-20T00:18:50;17.77;;;3.23;;
8556;SDS011;4316;53.840;10.762;2023-12-20T00:21:16;13.10;;;2.73;;
8556;SDS011;4316;53.840;10.762;2023-12-20T00:23:42;24.80;;;4.33;;
8556;SDS011;4316;53.840;10.762;2023-12-20T00:26:07;15.07;;;3.33;;
8556;SDS011;4316;53.840;10.762;2023-12-20T00:28:33;16.30;;;3.33;;
8556;SDS011;4316;53.840;10.762;2023-12-20T00:30:59;20.37;;;4.43;;
8556;SDS011;4316;53.840;10.762;2023-12-20T00:33:24;13.87;;;3.00;;
8556;SDS011;4316;53.840;10.762;2023-12-20T00:35:50;22.10;;;3.63;;
8556;SDS011;4316;53.840;10.762;2023-12-20T00:38:16;15.00;;;3.27;;
8556;SDS011;4316;53.840;10.762;2023-12-20T00:40:42;15.67;;;3.07;;
8556;SDS011;4316;53.840;10.762;2023-12-20T00:43:08;20.37;;;4.00;;
8556;SDS011;4316;53.840;10.762;2023-12-20T00:45:34;13.73;;;2.53;;
8556;SDS011;4316;53.840;10.762;2023-12-20T00:47:59;23.50;;;4.17;;
8556;SDS011;4316;53.840;10.762;2023-12-20T00:50:25;13.77;;;2.80;;
8556;SDS011;4316;53.840;10.762;2023-12-20T00:52:51;15.40;;;2.77;;
8556;SDS011;4316;53.840;10.762;2023-12-20T00:55:17;20.87;;;2.93;;
8556;SDS011;4316;53.840;10.762;2023-12-20T00:57:42;23.60;;;4.00;;
8556;SDS011;4316;53.840;10.762;2023-12-20T01:00:08;18.07;;;3.97;;
8556;SDS011;4316;53.840;10.762;2023-12-20T01:02:38;16.73;;;2.57;;
8556;SDS011;4316;53.840;10.762;2023-12-20T01:05:04;22.63;;;3.53;;
8556;SDS011;4316;53.840;10.762;2023-12-20T01:07:30;25.73;;;3.47;;
8556;SDS011;4316;53.840;10.762;2023-12-20T01:09:56;18.87;;;3.97;;
8556;SDS011;4316;53.840;10.762;2023-12-20T01:12:21;16.40;;;3.43;;
8556;SDS011;4316;53.840;10.762;2023-12-20T01:14:47;14.97;;;3.27;;
8556;SDS011;4316;53.840;10.762;2023-12-20T01:17:13;22.53;;;3.50;;
8556;SDS011;4316;53.840;10.762;2023-12-20T01:19:39;17.13;;;3.17;;
8556;SDS011;4316;53.840;10.762;2023-12-20T01:22:04;16.00;;;2.50;;
8556;SDS011;4316;53.840;10.762;2023-12-20T01:24:30;18.43;;;3.30;;
8556;SDS011;4316;53.840;10.762;2023-12-20T01:26:56;9.53;;;2.73;;
8556;SDS011;4316;53.840;10.762;2023-12-20T01:29:22;17.53;;;3.37;;
8556;SDS011;4316;53.840;10.762;2023-12-20T01:31:47;26.00;;;3.53;;
8556;SDS011;4316;53.840;10.762;2023-12-20T01:34:13;12.47;;;2.60;;
8556;SDS011;4316;53.840;10.762;2023-12-20T01:36:39;13.97;;;3.67;;
8556;SDS011;4316;53.840;10.762;2023-12-20T01:39:04;22.37;;;3.47;;
8556;SDS011;4316;53.840;10.762;2023-12-20T01:41:30;19.37;;;3.70;;
8556;SDS011;4316;53.840;10.762;2023-12-20T01:43:56;17.37;;;3.40;;
8556;SDS011;4316;53.840;10.762;2023-12-20T01:46:21;16.80;;;2.60;;
8556;SDS011;4316;53.840;10.762;2023-12-20T01:48:48;19.90;;;3.73;;
8556;SDS011;4316;53.840;10.762;2023-12-20T01:51:14;16.23;;;3.70;;
8556;SDS011;4316;53.840;10.762;2023-12-20T01:53:40;20.20;;;3.40;;
8556;SDS011;4316;53.840;10.762;2023-12-20T01:56:07;11.63;;;2.47;;
8556;SDS011;4316;53.840;10.762;2023-12-20T01:58:33;8.97;;;2.50;;
8556;SDS011;4316;53.840;10.762;2023-12-20T02:01:00;19.73;;;3.50;;
8556;SDS011;4316;53.840;10.762;2023-12-20T02:03:25;22.33;;;3.53;;
8556;SDS011;4316;53.840;10.762;2023-12-20T02:05:51;19.47;;;3.33;;
8556;SDS011;4316;53.840;10.762;2023-12-20T02:08:18;18.50;;;3.03;;
8556;SDS011;4316;53.840;10.762;2023-12-20T02:10:44;14.37;;;2.50;;
8556;SDS011;4316;53.840;10.762;2023-12-20T02:13:10;16.73;;;3.00;;
8556;SDS011;4316;53.840;10.762;2023-12-20T02:15:35;15.33;;;3.07;;
8556;SDS011;4316;53.840;10.762;2023-12-20T02:18:02;15.50;;;2.90;;
8556;SDS011;4316;53.840;10.762;2023-12-20T02:20:29;16.17;;;2.77;;
8556;SDS011;4316;53.840;10.762;2023-12-20T02:22:54;13.63;;;2.87;;
8556;SDS011;4316;53.840;10.762;2023-12-20T02:25:20;19.13;;;3.23;;
8556;SDS011;4316;53.840;10.762;2023-12-20T02:27:46;19.73;;;3.30;;
8556;SDS011;4316;53.840;10.762;2023-12-20T02:30:13;10.63;;;2.77;;
8556;SDS011;4316;53.840;10.762;2023-12-20T02:32:39;18.27;;;3.87;;
8556;SDS011;4316;53.840;10.762;2023-12-20T02:35:05;16.50;;;3.07;;
8556;SDS011;4316;53.840;10.762;2023-12-20T02:37:32;14.33;;;2.80;;
8556;SDS011;4316;53.840;10.762;2023-12-20T02:39:58;14.20;;;3.63;;
8556;SDS011;4316;53.840;10.762;2023-12-20T02:42:24;21.27;;;3.43;;
8556;SDS011;4316;53.840;10.762;2023-12-20T02:44:50;13.40;;;2.73;;
8556;SDS011;4316;53.840;10.762;2023-12-20T02:47:16;11.87;;;3.27;;
8556;SDS011;4316;53.840;10.762;2023-12-20T02:49:41;26.80;;;3.27;;
8556;SDS011;4316;53.840;10.762;2023-12-20T02:52:07;14.87;;;2.80;;
8556;SDS011;4316;53.840;10.762;2023-12-20T02:54:33;14.83;;;2.83;;
8556;SDS011;4316;53.840;10.762;2023-12-20T02:56:59;21.13;;;3.43;;
8556;SDS011;4316;53.840;10.762;2023-12-20T02:59:24;11.23;;;2.40;;
8556;SDS011;4316;53.840;10.762;2023-12-20T03:01:50;15.23;;;2.97;;
8556;SDS011;4316;53.840;10.762;2023-12-20T03:04:16;17.70;;;3.23;;
8556;SDS011;4316;53.840;10.762;2023-12-20T03:06:41;24.40;;;4.07;;
8556;SDS011;4316;53.840;10.762;2023-12-20T03:09:07;16.33;;;3.10;;
8556;SDS011;4316;53.840;10.762;2023-12-20T03:11:33;19.57;;;4.47;;
8556;SDS011;4316;53.840;10.762;2023-12-20T03:13:58;18.63;;;3.37;;
8556;SDS011;4316;53.840;10.762;2023-12-20T03:16:24;19.27;;;2.50;;
8556;SDS011;4316;53.840;10.762;2023-12-20T03:18:50;17.23;;;2.77;;
8556;SDS011;4316;53.840;10.762;2023-12-20T03:21:16;15.33;;;3.40;;
8556;SDS011;4316;53.840;10.762;2023-12-20T03:23:42;10.27;;;3.27;;
8556;SDS011;4316;53.840;10.762;2023-12-20T03:26:08;17.30;;;2.83;;
8556;SDS011;4316;53.840;10.762;2023-12-20T03:28:34;14.80;;;3.20;;
8556;SDS011;4316;53.840;10.762;2023-12-20T03:31:01;12.93;;;2.83;;
8556;SDS011;4316;53.840;10.762;2023-12-20T03:33:28;11.37;;;2.53;;
8556;SDS011;4316;53.840;10.762;2023-12-20T03:35:57;12.77;;;3.10;;
8556;SDS011;4316;53.840;10.762;2023-12-20T03:38:23;16.27;;;3.57;;
8556;SDS011;4316;53.840;10.762;2023-12-20T03:40:52;12.30;;;2.60;;
8556;SDS011;4316;53.840;10.762;2023-12-20T03:43:18;14.20;;;2.50;;
8556;SDS011;4316;53.840;10.762;2023-12-20T03:45:43;14.37;;;2.40;;
8556;SDS011;4316;53.840;10.762;2023-12-20T03:48:09;16.83;;;2.97;;
8556;SDS011;4316;53.840;10.762;2023-12-20T03:50:35;9.57;;;2.13;;
8556;SDS011;4316;53.840;10.762;2023-12-20T03:53:01;19.17;;;3.00;;
8556;SDS011;4316;53.840;10.762;2023-12-20T03:55:27;16.50;;;3.60;;
8556;SDS011;4316;53.840;10.762;2023-12-20T03:57:53;9.80;;;2.77;;
8556;SDS011;4316;53.840;10.762;2023-12-20T04:00:18;13.23;;;2.67;;
8556;SDS011;4316;53.840;10.762;2023-12-20T04:02:44;12.43;;;2.90;;
8556;SDS011;4316;53.840;10.762;2023-12-20T04:05:10;17.63;;;3.13;;
8556;SDS011;4316;53.840;10.762;2023-12-20T04:07:36;10.50;;;2.67;;
8556;SDS011;4316;53.840;10.762;2023-12-20T04:10:02;7.80;;;2.47;;
8556;SDS011;4316;53.840;10.762;2023-12-20T04:12:32;16.80;;;3.07;;
8556;SDS011;4316;53.840;10.762;2023-12-20T04:14:58;12.10;;;2.67;;
8556;SDS011;4316;53.840;10.762;2023-12-20T04:17:24;11.80;;;2.90;;
8556;SDS011;4316;53.840;10.762;2023-12-20T04:19:50;18.17;;;3.60;;
8556;SDS011;4316;53.840;10.762;2023-12-20T04:22:19;17.83;;;3.13;;
8556;SDS011;4316;53.840;10.762;2023-12-20T04:24:45;5.30;;;1.73;;
8556;SDS011;4316;53.840;10.762;2023-12-20T04:27:11;16.40;;;3.30;;
8556;SDS011;4316;53.840;10.762;2023-12-20T04:29:37;15.27;;;3.00;;
8556;SDS011;4316;53.840;10.762;2023-12-20T04:32:02;13.40;;;2.70;;
8556;SDS011;4316;53.840;10.762;2023-12-20T04:34:29;14.80;;;2.93;;
8556;SDS011;4316;53.840;10.762;2023-12-20T04:36:54;12.17;;;3.50;;
8556;SDS011;4316;53.840;10.762;2023-12-20T04:39:20;6.77;;;2.17;;
8556;SDS011;4316;53.840;10.762;2023-12-20T04:41:46;10.03;;;2.17;;
8556;SDS011;4316;53.840;10.762;2023-12-20T04:44:15;15.60;;;3.00;;
8556;SDS011;4316;53.840;10.762;2023-12-20T04:46:41;11.70;;;3.00;;
8556;SDS011;4316;53.840;10.762;2023-12-20T04:49:07;8.33;;;2.50;;
8556;SDS011;4316;53.840;10.762;2023-12-20T04:51:33;9.13;;;2.77;;
8556;SDS011;4316;53.840;10.762;2023-12-20T04:53:59;10.83;;;2.70;;
8556;SDS011;4316;53.840;10.762;2023-12-20T04:56:25;21.07;;;3.40;;
8556;SDS011;4316;53.840;10.762;2023-12-20T04:58:51;12.40;;;3.37;;
8556;SDS011;4316;53.840;10.762;2023-12-20T05:01:17;8.63;;;2.70;;
8556;SDS011;4316;53.840;10.762;2023-12-20T05:03:42;12.63;;;2.80;;
8556;SDS011;4316;53.840;10.762;2023-12-20T05:06:09;14.27;;;3.77;;
8556;SDS011;4316;53.840;10.762;2023-12-20T05:08:35;9.70;;;2.00;;
8556;SDS011;4316;53.840;10.762;2023-12-20T05:11:02;12.60;;;2.40;;
8556;SDS011;4316;53.840;10.762;2023-12-20T05:13:28;12.77;;;2.77;;
8556;SDS011;4316;53.840;10.762;2023-12-20T05:15:54;7.47;;;2.57;;
8556;SDS011;4316;53.840;10.762;2023-12-20T05:18:20;13.50;;;3.63;;
8556;SDS011;4316;53.840;10.762;2023-12-20T05:20:46;9.63;;;2.97;;
8556;SDS011;4316;53.840;10.762;2023-12-20T05:23:12;16.40;;;3.23;;
8556;SDS011;4316;53.840;10.762;2023-12-20T05:25:39;11.53;;;2.73;;
8556;SDS011;4316;53.840;10.762;2023-12-20T05:28:04;13.13;;;3.07;;
8556;SDS011;4316;53.840;10.762;2023-12-20T05:30:30;32.33;;;4.73;;
8556;SDS011;4316;53.840;10.762;2023-12-20T05:32:56;20.23;;;4.53;;
8556;SDS011;4316;53.840;10.762;2023-12-20T05:35:22;14.20;;;3.33;;
8556;SDS011;4316;53.840;10.762;2023-12-20T05:37:48;17.27;;;3.87;;
8556;SDS011;4316;53.840;10.762;2023-12-20T05:40:15;15.03;;;3.03;;
8556;SDS011;4316;53.840;10.762;2023-12-20T05:42:40;19.83;;;3.90;;
8556;SDS011;4316;53.840;10.762;2023-12-20T05:45:07;19.10;;;3.63;;
8556;SDS011;4316;53.840;10.762;2023-12-20T05:47:32;12.30;;;2.97;;
8556;SDS011;4316;53.840;10.762;2023-12-20T05:49:58;21.03;;;3.90;;
8556;SDS011;4316;53.840;10.762;2023-12-20T05:52:24;15.90;;;3.23;;
8556;SDS011;4316;53.840;10.762;2023-12-20T05:54:50;10.73;;;3.23;;
8556;SDS011;4316;53.840;10.762;2023-12-20T05:57:15;17.50;;;3.37;;
8556;SDS011;4316;53.840;10.762;2023-12-20T05:59:41;15.77;;;3.47;;
8556;SDS011;4316;53.840;10.762;2023-12-20T06:02:07;21.67;;;3.47;;
8556;SDS011;4316;53.840;10.762;2023-12-20T06:04:33;12.53;;;2.80;;
8556;SDS011;4316;53.840;10.762;2023-12-20T06:06:59;17.20;;;3.03;;
8556;SDS011;4316;53.840;10.762;2023-12-20T06:09:28;13.53;;;2.60;;
8556;SDS011;4316;53.840;10.762;2023-12-20T06:11:54;8.70;;;2.17;;
8556;SDS011;4316;53.840;10.762;2023-12-20T06:14:21;18.90;;;4.30;;
8556;SDS011;4316;53.840;10.762;2023-12-20T06:16:46;12.43;;;3.10;;
8556;SDS011;4316;53.840;10.762;2023-12-20T06:19:12;14.23;;;3.27;;
8556;SDS011;4316;53.840;10.762;2023-12-20T06:21:38;17.10;;;2.97;;
8556;SDS011;4316;53.840;10.762;2023-12-20T06:24:04;10.87;;;2.63;;
8556;SDS011;4316;53.840;10.762;2023-12-20T06:26:30;8.80;;;2.73;;
8556;SDS011;4316;53.840;10.762;2023-12-20T06:28:56;12.97;;;2.63;;
8556;SDS011;4316;53.840;10.762;2023-12-20T06:31:21;6.30;;;1.97;;
8556;SDS011;4316;53.840;10.762;2023-12-20T06:33:47;14.33;;;2.47;;
8556;SDS011;4316;53.840;10.762;2023-12-20T06:36:22;11.07;;;2.47;;
8556;SDS011;4316;53.840;10.762;2023-12-20T06:38:48;5.10;;;1.60;;
8556;SDS011;4316;53.840;10.762;2023-12-20T06:41:14;10.30;;;2.90;;
8556;SDS011;4316;53.840;10.762;2023-12-20T06:43:41;12.73;;;2.60;;
8556;SDS011;4316;53.840;10.762;2023-12-20T06:46:07;9.30;;;2.33;;
8556;SDS011;4316;53.840;10.762;2023-12-20T06:48:34;8.13;;;2.50;;
8556;SDS011;4316;53.840;10.762;2023-12-20T06:51:00;9.13;;;2.43;;
8556;SDS011;4316;53.840;10.762;2023-12-20T06:53:29;10.27;;;2.83;;
8556;SDS011;4316;53.840;10.762;2023-12-20T06:55:55;10.97;;;2.77;;
8556;SDS011;4316;53.840;10.762;2023-12-20T06:58:23;5.23;;;1.53;;
8556;SDS011;4316;53.840;10.762;2023-12-20T07:00:50;11.77;;;2.93;;
8556;SDS011;4316;53.840;10.762;2023-12-20T07:03:16;10.53;;;3.23;;
8556;SDS011;4316;53.840;10.762;2023-12-20T07:05:42;16.17;;;3.40;;
8556;SDS011;4316;53.840;10.762;2023-12-20T07:08:08;13.90;;;3.60;;
8556;SDS011;4316;53.840;10.762;2023-12-20T07:10:34;10.60;;;2.60;;
8556;SDS011;4316;53.840;10.762;2023-12-20T07:13:00;17.63;;;2.60;;
8556;SDS011;4316;53.840;10.762;2023-12-20T07:15:26;12.27;;;2.87;;
8556;SDS011;4316;53.840;10.762;2023-12-20T07:17:54;11.57;;;3.00;;
8556;SDS011;4316;53.840;10.762;2023-12-20T07:20:20;9.50;;;2.50;;
8556;SDS011;4316;53.840;10.762;2023-12-20T07:22:46;16.30;;;3.20;;
8556;SDS011;4316;53.840;10.762;2023-12-20T07:25:11;11.70;;;2.63;;
8556;SDS011;4316;53.840;10.762;2023-12-20T07:27:38;15.60;;;2.97;;
8556;SDS011;4316;53.840;10.762;2023-12-20T07:30:04;13.23;;;3.33;;
8556;SDS011;4316;53.840;10.762;2023-12-20T07:32:30;22.23;;;4.40;;
8556;SDS011;4316;53.840;10.762;2023-12-20T07:34:55;13.17;;;3.10;;
8556;SDS011;4316;53.840;10.762;2023-12-20T07:37:21;15.67;;;3.03;;
8556;SDS011;4316;53.840;10.762;2023-12-20T07:39:47;23.27;;;4.47;;
8556;SDS011;4316;53.840;10.762;2023-12-20T07:42:13;16.00;;;3.87;;
8556;SDS011;4316;53.840;10.762;2023-12-20T07:44:39;18.20;;;3.50;;
8556;SDS011;4316;53.840;10.762;2023-12-20T07:47:04;9.03;;;3.37;;
8556;SDS011;4316;53.840;10.762;2023-12-20T07:49:31;13.43;;;3.07;;
8556;SDS011;4316;53.840;10.762;2023-12-20T07:51:57;21.40;;;4.67;;
8556;SDS011;4316;53.840;10.762;2023-12-20T07:54:23;13.97;;;3.00;;
8556;SDS011;4316;53.840;10.762;2023-12-20T07:56:48;14.40;;;3.13;;
8556;SDS011;4316;53.840;10.762;2023-12-20T07:59:14;17.97;;;3.60;;
8556;SDS011;4316;53.840;10.762;2023-12-20T08:01:40;18.83;;;3.57;;
8556;SDS011;4316;53.840;10.762;2023-12-20T08:04:07;15.43;;;3.43;;
8556;SDS011;4316;53.840;10.762;2023-12-20T08:06:33;17.07;;;3.10;;
8556;SDS011;4316;53.840;10.762;2023-12-20T08:08:58;14.40;;;3.60;;
8556;SDS011;4316;53.840;10.762;2023-12-20T08:11:24;14.13;;;2.97;;
8556;SDS011;4316;53.840;10.762;2023-12-20T08:13:50;11.93;;;3.33;;
8556;SDS011;4316;53.840;10.762;2023-12-20T08:16:17;12.20;;;3.17;;
8556;SDS011;4316;53.840;10.762;2023-12-20T08:18:43;14.60;;;4.03;;
8556;SDS011;4316;53.840;10.762;2023-12-20T08:21:09;14.57;;;3.03;;
8556;SDS011;4316;53.840;10.762;2023-12-20T08:23:35;14.03;;;3.33;;
8556;SDS011;4316;53.840;10.762;2023-12-20T08:26:05;19.93;;;4.33;;
8556;SDS011;4316;53.840;10.762;2023-12-20T08:28:31;15.17;;;3.63;;
8556;SDS011;4316;53.840;10.762;2023-12-20T08:30:57;10.33;;;2.27;;
8556;SDS011;4316;53.840;10.762;2023-12-20T08:33:23;14.53;;;3.93;;
8556;SDS011;4316;53.840;10.762;2023-12-20T08:35:48;12.60;;;3.10;;
8556;SDS011;4316;53.840;10.762;2023-12-20T08:38:14;11.23;;;3.30;;
8556;SDS011;4316;53.840;10.762;2023-12-20T08:40:41;25.40;;;4.17;;
8556;SDS011;4316;53.840;10.762;2023-12-20T08:43:07;12.93;;;3.60;;
8556;SDS011;4316;53.840;10.762;2023-12-20T08:45:33;16.10;;;3.73;;
8556;SDS011;4316;53.840;10.762;2023-12-20T08:47:58;20.43;;;4.10;;
8556;SDS011;4316;53.840;10.762;2023-12-20T08:50:25;20.00;;;4.53;;
8556;SDS011;4316;53.840;10.762;2023-12-20T08:52:51;18.27;;;3.73;;
8556;SDS011;4316;53.840;10.762;2023-12-20T08:55:16;20.93;;;3.57;;
8556;SDS011;4316;53.840;10.762;2023-12-20T08:57:43;18.93;;;3.27;;
8556;SDS011;4316;53.840;10.762;2023-12-20T09:00:09;15.27;;;3.53;;
8556;SDS011;4316;53.840;10.762;2023-12-20T09:02:35;14.93;;;3.20;;
8556;SDS011;4316;53.840;10.762;2023-12-20T09:05:02;13.90;;;3.97;;
8556;SDS011;4316;53.840;10.762;2023-12-20T09:07:28;3.93;;;2.40;;
8556;SDS011;4316;53.840;10.762;2023-12-20T09:09:56;8.37;;;2.80;;
8556;SDS011;4316;53.840;10.762;2023-12-20T09:12:23;16.30;;;4.43;;
8556;SDS011;4316;53.840;10.762;2023-12-20T09:14:49;13.73;;;2.97;;
8556;SDS011;4316;53.840;10.762;2023-12-20T09:17:16;14.23;;;3.93;;
8556;SDS011;4316;53.840;10.762;2023-12-20T09:19:43;9.53;;;3.07;;
8556;SDS011;4316;53.840;10.762;2023-12-20T09:22:09;22.17;;;5.20;;
8556;SDS011;4316;53.840;10.762;2023-12-20T09:24:35;18.07;;;3.93;;
8556;SDS011;4316;53.840;10.762;2023-12-20T09:27:01;22.93;;;6.07;;
8556;SDS011;4316;53.840;10.762;2023-12-20T09:29:27;14.70;;;3.33;;
8556;SDS011;4316;53.840;10.762;2023-12-20T09:31:54;19.27;;;3.30;;
8556;SDS011;4316;53.840;10.762;2023-12-20T09:34:20;15.37;;;2.87;;
8556;SDS011;4316;53.840;10.762;2023-12-20T09:36:46;11.87;;;1.67;;
8556;SDS011;4316;53.840;10.762;2023-12-20T09:39:16;9.23;;;2.67;;
8556;SDS011;4316;53.840;10.762;2023-12-20T09:42:11;7.13;;;1.63;;
8556;SDS011;4316;53.840;10.762;2023-12-20T09:44:36;5.60;;;1.70;;
8556;SDS011;4316;53.840;10.762;2023-12-20T09:47:06;3.83;;;1.80;;
8556;SDS011;4316;53.840;10.762;2023-12-20T09:49:32;8.33;;;2.23;;
8556;SDS011;4316;53.840;10.762;2023-12-20T09:51:58;2.27;;;1.37;;
8556;SDS011;4316;53.840;10.762;2023-12-20T09:54:25;3.00;;;1.50;;
8556;SDS011;4316;53.840;10.762;2023-12-20T09:56:53;4.00;;;1.17;;
8556;SDS011;4316;53.840;10.762;2023-12-20T09:59:19;3.53;;;1.20;;
8556;SDS011;4316;53.840;10.762;2023-12-20T10:01:45;3.13;;;0.83;;
8556;SDS011;4316;53.840;10.762;2023-12-20T10:04:12;3.90;;;1.00;;
8556;SDS011;4316;53.840;10.762;2023-12-20T10:06:41;2.03;;;1.13;;
8556;SDS011;4316;53.840;10.762;2023-12-20T10:09:08;2.60;;;1.00;;
8556;SDS011;4316;53.840;10.762;2023-12-20T10:11:38;1.67;;;1.00;;
8556;SDS011;4316;53.840;10.762;2023-12-20T10:14:04;3.87;;;1.43;;
8556;SDS011;4316;53.840;10.762;2023-12-20T10:16:31;9.77;;;1.20;;
8556;SDS011;4316;53.840;10.762;2023-12-20T10:18:58;1.50;;;1.20;;
8556;SDS011;4316;53.840;10.762;2023-12-20T10:21:25;3.53;;;1.13;;
8556;SDS011;4316;53.840;10.762;2023-12-20T10:23:54;1.37;;;0.73;;
8556;SDS011;4316;53.840;10.762;2023-12-20T10:26:21;1.50;;;0.80;;
8556;SDS011;4316;53.840;10.762;2023-12-20T10:28:56;2.40;;;0.90;;
8556;SDS011;4316;53.840;10.762;2023-12-20T10:31:31;3.47;;;1.00;;
8556;SDS011;4316;53.840;10.762;2023-12-20T10:33:59;7.13;;;1.20;;
8556;SDS011;4316;53.840;10.762;2023-12-20T10:36:26;1.30;;;1.00;;
8556;SDS011;4316;53.840;10.762;2023-12-20T10:38:53;3.23;;;1.30;;
8556;SDS011;4316;53.840;10.762;2023-12-20T10:41:23;4.87;;;1.67;;
8556;SDS011;4316;53.840;10.762;2023-12-20T10:46:27;13.60;;;1.40;;
8556;SDS011;4316;53.840;10.762;2023-12-20T10:48:55;4.77;;;1.43;;
8556;SDS011;4316;53.840;10.762;2023-12-20T10:51:24;5.13;;;1.37;;
8556;SDS011;4316;53.840;10.762;2023-12-20T10:53:55;8.20;;;1.93;;
8556;SDS011;4316;53.840;10.762;2023-12-20T10:56:21;3.17;;;2.00;;
8556;SDS011;4316;53.840;10.762;2023-12-20T10:58:49;5.17;;;1.47;;
8556;SDS011;4316;53.840;10.762;2023-12-20T11:01:16;6.40;;;1.83;;
8556;SDS011;4316;53.840;10.762;2023-12-20T11:03:49;5.87;;;1.83;;
8556;SDS011;4316;53.840;10.762;2023-12-20T11:12:11;6.27;;;1.97;;
8556;SDS011;4316;53.840;10.762;2023-12-20T11:14:46;4.20;;;1.60;;
8556;SDS011;4316;53.840;10.762;2023-12-20T11:17:16;16.97;;;4.80;;
8556;SDS011;4316;53.840;10.762;2023-12-20T11:22:21;12.87;;;2.97;;
8556;SDS011;4316;53.840;10.762;2023-12-20T11:24:48;12.40;;;2.33;;
8556;SDS011;4316;53.840;10.762;2023-12-20T11:27:15;14.30;;;3.60;;
8556;SDS011;4316;53.840;10.762;2023-12-20T11:29:41;6.07;;;2.00;;
8556;SDS011;4316;53.840;10.762;2023-12-20T11:34:53;6.27;;;1.70;;
8556;SDS011;4316;53.840;10.762;2023-12-20T11:37:19;6.47;;;2.13;;
8556;SDS011;4316;53.840;10.762;2023-12-20T11:39:53;9.33;;;2.60;;
8556;SDS011;4316;53.840;10.762;2023-12-20T11:42:25;7.00;;;1.10;;
8556;SDS011;4316;53.840;10.762;2023-12-20T11:44:50;3.83;;;1.50;;
8556;SDS011;4316;53.840;10.762;2023-12-20T11:47:16;3.73;;;1.60;;
8556;SDS011;4316;53.840;10.762;2023-12-20T11:49:44;5.70;;;1.20;;
8556;SDS011;4316;53.840;10.762;2023-12-20T11:52:12;3.43;;;1.60;;
8556;SDS011;4316;53.840;10.762;2023-12-20T11:54:38;3.53;;;1.10;;
8556;SDS011;4316;53.840;10.762;2023-12-20T11:57:03;3.90;;;1.10;;
8556;SDS011;4316;53.840;10.762;2023-12-20T11:59:30;6.27;;;1.80;;
8556;SDS011;4316;53.840;10.762;2023-12-20T12:01:56;9.37;;;2.10;;
8556;SDS011;4316;53.840;10.762;2023-12-20T12:04:25;5.13;;;1.80;;
8556;SDS011;4316;53.840;10.762;2023-12-20T12:06:52;3.73;;;2.00;;
8556;SDS011;4316;53.840;10.762;2023-12-20T12:09:17;5.17;;;2.47;;
8556;SDS011;4316;53.840;10.762;2023-12-20T12:11:43;4.27;;;1.60;;
8556;SDS011;4316;53.840;10.762;2023-12-20T12:14:09;6.10;;;1.77;;
8556;SDS011;4316;53.840;10.762;2023-12-20T12:16:35;10.87;;;2.30;;
8556;SDS011;4316;53.840;10.762;2023-12-20T12:19:01;5.17;;;1.70;;
8556;SDS011;4316;53.840;10.762;2023-12-20T12:21:27;4.80;;;1.97;;
8556;SDS011;4316;53.840;10.762;2023-12-20T12:23:52;9.70;;;2.60;;
8556;SDS011;4316;53.840;10.762;2023-12-20T12:26:18;5.97;;;2.10;;
8556;SDS011;4316;53.840;10.762;2023-12-20T12:28:44;7.47;;;2.53;;
8556;SDS011;4316;53.840;10.762;2023-12-20T12:31:13;6.80;;;1.97;;
8556;SDS011;4316;53.840;10.762;2023-12-20T12:33:42;9.20;;;1.80;;
8556;SDS011;4316;53.840;10.762;2023-12-20T12:36:09;16.80;;;3.70;;
8556;SDS011;4316;53.840;10.762;2023-12-20T12:38:36;13.10;;;2.53;;
8556;SDS011;4316;53.840;10.762;2023-12-20T12:41:01;21.43;;;2.83;;
8556;SDS011;4316;53.840;10.762;2023-12-20T12:43:27;9.20;;;1.97;;
8556;SDS011;4316;53.840;10.762;2023-12-20T12:45:53;9.87;;;2.30;;
8556;SDS011;4316;53.840;10.762;2023-12-20T12:48:19;9.43;;;2.10;;
8556;SDS011;4316;53.840;10.762;2023-12-20T12:50:47;15.37;;;2.60;;
8556;SDS011;4316;53.840;10.762;2023-12-20T12:53:13;9.13;;;2.30;;
8556;SDS011;4316;53.840;10.762;2023-12-20T12:55:38;16.70;;;2.67;;
8556;SDS011;4316;53.840;10.762;2023-12-20T12:58:04;13.53;;;2.83;;
8556;SDS011;4316;53.840;10.762;2023-12-20T13:00:30;16.00;;;3.03;;
8556;SDS011;4316;53.840;10.762;2023-12-20T13:02:55;20.70;;;3.63;;
8556;SDS011;4316;53.840;10.762;2023-12-20T13:05:21;18.17;;;3.63;;
8556;SDS011;4316;53.840;10.762;2023-12-20T13:07:46;16.23;;;3.57;;
8556;SDS011;4316;53.840;10.762;2023-12-20T13:10:12;22.83;;;3.87;;
8556;SDS011;4316;53.840;10.762;2023-12-20T13:12:41;12.90;;;3.80;;
8556;SDS011;4316;53.840;10.762;2023-12-20T13:15:07;22.77;;;6.30;;
8556;SDS011;4316;53.840;10.762;2023-12-20T13:17:33;23.00;;;4.57;;
8556;SDS011;4316;53.840;10.762;2023-12-20T13:19:59;18.60;;;3.90;;
8556;SDS011;4316;53.840;10.762;2023-12-20T13:22:25;30.27;;;12.37;;
8556;SDS011;4316;53.840;10.762;2023-12-20T13:24:50;23.07;;;6.20;;
8556;SDS011;4316;53.840;10.762;2023-12-20T13:27:16;30.53;;;5.90;;
8556;SDS011;4316;53.840;10.762;2023-12-20T13:29:41;23.00;;;7.27;;
8556;SDS011;4316;53.840;10.762;2023-12-20T13:32:07;33.23;;;7.90;;
8556;SDS011;4316;53.840;10.762;2023-12-20T13:34:33;19.77;;;5.03;;
8556;SDS011;4316;53.840;10.762;2023-12-20T13:36:58;20.53;;;4.70;;
8556;SDS011;4316;53.840;10.762;2023-12-20T13:39:24;22.60;;;4.50;;
8556;SDS011;4316;53.840;10.762;2023-12-20T13:41:49;23.80;;;6.17;;
8556;SDS011;4316;53.840;10.762;2023-12-20T13:44:15;23.93;;;7.40;;
8556;SDS011;4316;53.840;10.762;2023-12-20T13:46:41;14.87;;;4.03;;
8556;SDS011;4316;53.840;10.762;2023-12-20T13:49:07;20.43;;;4.63;;
8556;SDS011;4316;53.840;10.762;2023-12-20T13:51:32;20.57;;;4.93;;
8556;SDS011;4316;53.840;10.762;2023-12-20T13:53:59;23.83;;;5.77;;
8556;SDS011;4316;53.840;10.762;2023-12-20T13:56:25;29.90;;;6.63;;
8556;SDS011;4316;53.840;10.762;2023-12-20T13:58:51;25.17;;;8.83;;
8556;SDS011;4316;53.840;10.762;2023-12-20T14:01:16;29.33;;;8.20;;
8556;SDS011;4316;53.840;10.762;2023-12-20T14:03:42;30.37;;;6.80;;
8556;SDS011;4316;53.840;10.762;2023-12-20T14:06:07;20.30;;;5.63;;
8556;SDS011;4316;53.840;10.762;2023-12-20T14:08:33;18.67;;;6.20;;
8556;SDS011;4316;53.840;10.762;2023-12-20T14:10:59;20.03;;;5.80;;
8556;SDS011;4316;53.840;10.762;2023-12-20T14:13:26;23.50;;;5.83;;
8556;SDS011;4316;53.840;10.762;2023-12-20T14:15:51;26.47;;;5.37;;
8556;SDS011;4316;53.840;10.762;2023-12-20T14:18:19;20.40;;;5.23;;
8556;SDS011;4316;53.840;10.762;2023-12-20T14:20:45;27.03;;;5.50;;
8556;SDS011;4316;53.840;10.762;2023-12-20T14:23:12;21.20;;;4.70;;
8556;SDS011;4316;53.840;10.762;2023-12-20T14:25:40;22.27;;;4.87;;
8556;SDS011;4316;53.840;10.762;2023-12-20T14:28:06;22.80;;;5.67;;
8556;SDS011;4316;53.840;10.762;2023-12-20T14:30:32;18.67;;;4.80;;
8556;SDS011;4316;53.840;10.762;2023-12-20T14:32:57;12.07;;;4.17;;
8556;SDS011;4316;53.840;10.762;2023-12-20T14:35:23;27.53;;;4.30;;
8556;SDS011;4316;53.840;10.762;2023-12-20T14:37:49;19.13;;;4.47;;
8556;SDS011;4316;53.840;10.762;2023-12-20T14:40:16;24.03;;;5.40;;
8556;SDS011;4316;53.840;10.762;2023-12-20T14:42:44;27.00;;;6.50;;
8556;SDS011;4316;53.840;10.762;2023-12-20T14:45:11;19.17;;;4.60;;
8556;SDS011;4316;53.840;10.762;2023-12-20T14:47:38;18.17;;;4.67;;
8556;SDS011;4316;53.840;10.762;2023-12-20T14:50:04;25.87;;;5.33;;
8556;SDS011;4316;53.840;10.762;2023-12-20T14:52:31;27.17;;;5.17;;
8556;SDS011;4316;53.840;10.762;2023-12-20T14:54:58;22.27;;;5.83;;
8556;SDS011;4316;53.840;10.762;2023-12-20T14:57:24;23.40;;;6.27;;
8556;SDS011;4316;53.840;10.762;2023-12-20T14:59:51;16.63;;;6.23;;